createdAt,value
2023-01-30T00:00:17.375Z,100490.91
2023-01-30T00:01:06.940Z,100487.44
2023-01-30T00:01:54.119Z,100488.03
2023-01-30T00:02:41.378Z,100486.53
2023-01-30T00:03:28.559Z,100482.06
2023-01-30T00:04:17.315Z,100484.00
2023-01-30T00:05:04.979Z,100484.59
2023-01-30T00:05:52.398Z,100483.88
2023-01-30T00:06:40.983Z,100485.88
2023-01-30T00:07:28.014Z,100490.06
2023-01-30T00:08:15.150Z,100485.59
2023-01-30T00:09:02.435Z,100491.44
2023-01-30T00:09:49.370Z,100484.03
2023-01-30T00:10:36.406Z,100483.31
2023-01-30T00:11:23.660Z,100488.69
2023-01-30T00:12:10.674Z,100489.44
2023-01-30T00:12:57.724Z,100487.50
2023-01-30T00:13:44.859Z,100480.66
2023-01-30T00:14:31.975Z,100477.69
2023-01-30T00:15:19.433Z,100486.44
2023-01-30T00:16:06.813Z,100482.69
2023-01-30T00:16:53.786Z,100473.53
2023-01-30T00:17:40.882Z,100476.22
2023-01-30T00:18:28.068Z,100483.00
2023-01-30T00:19:15.155Z,100480.75
2023-01-30T00:20:02.340Z,100481.75
2023-01-30T00:20:49.440Z,100483.03
2023-01-30T00:21:36.519Z,100481.19
2023-01-30T00:22:23.796Z,100473.75
2023-01-30T00:23:10.727Z,100477.91
2023-01-30T00:24:00.136Z,100475.34
2023-01-30T00:24:47.583Z,100473.44
2023-01-30T00:25:35.225Z,100477.66
2023-01-30T00:26:22.460Z,100465.59
2023-01-30T00:27:09.548Z,100470.81
2023-01-30T00:27:56.914Z,100470.59
2023-01-30T00:28:43.966Z,100471.50
2023-01-30T00:29:31.080Z,100471.66
2023-01-30T00:30:18.464Z,100468.97
2023-01-30T00:31:06.115Z,100468.16
2023-01-30T00:31:53.372Z,100462.19
2023-01-30T00:32:40.357Z,100468.97
2023-01-30T00:33:28.137Z,100466.19
2023-01-30T00:34:15.214Z,100471.19
2023-01-30T00:35:02.233Z,100465.81
2023-01-30T00:35:51.076Z,100468.66
2023-01-30T00:36:38.081Z,100467.06
2023-01-30T00:37:25.348Z,100466.03
2023-01-30T00:38:12.536Z,100467.44
2023-01-30T00:38:59.560Z,100464.56
2023-01-30T00:39:46.590Z,100462.28
2023-01-30T00:40:33.692Z,100466.75
2023-01-30T00:41:20.713Z,100467.97
2023-01-30T00:42:26.246Z,100462.12
2023-01-30T00:43:34.003Z,100461.38
2023-01-30T00:44:39.627Z,100459.00
2023-01-30T00:45:45.209Z,100457.06
2023-01-30T00:46:52.562Z,100453.66
2023-01-30T00:47:39.667Z,100447.84
2023-01-30T00:48:26.852Z,100451.22
2023-01-30T00:49:14.311Z,100448.03
2023-01-30T00:50:01.436Z,100451.28
2023-01-30T00:50:48.645Z,100450.41
2023-01-30T00:51:35.807Z,100451.91
2023-01-30T00:52:23.011Z,100458.81
2023-01-30T00:53:12.117Z,100459.41
2023-01-30T00:53:59.141Z,100452.59
2023-01-30T00:54:46.347Z,100455.56
2023-01-30T00:55:33.343Z,100451.00
2023-01-30T00:56:20.683Z,100452.91
2023-01-30T00:57:07.661Z,100451.06
2023-01-30T00:57:54.635Z,100459.88
2023-01-30T00:58:41.791Z,100449.28
2023-01-30T00:59:29.581Z,100452.81
2023-01-30T01:00:18.214Z,100457.13
2023-01-30T01:01:05.284Z,100456.94
2023-01-30T01:01:52.513Z,100452.28
2023-01-30T01:02:39.677Z,100457.13
2023-01-30T01:03:26.632Z,100457.56
2023-01-30T01:04:13.870Z,100453.00
2023-01-30T01:05:00.823Z,100451.31
2023-01-30T01:05:48.233Z,100453.50
2023-01-30T01:06:35.387Z,100451.06
2023-01-30T01:07:22.453Z,100458.59
2023-01-30T01:08:10.813Z,100443.59
2023-01-30T01:08:57.864Z,100457.87
2023-01-30T01:09:44.806Z,100446.56
2023-01-30T01:10:32.248Z,100446.28
2023-01-30T01:11:24.945Z,100447.59
2023-01-30T01:12:12.153Z,100441.03
2023-01-30T01:12:59.152Z,100448.13
2023-01-30T01:13:46.330Z,100437.25
2023-01-30T01:14:33.610Z,100446.91
2023-01-30T01:15:22.722Z,100436.81
2023-01-30T01:16:09.813Z,100437.94
2023-01-30T01:16:56.938Z,100437.25
2023-01-30T01:17:43.957Z,100436.34
2023-01-30T01:18:31.113Z,100428.00
2023-01-30T01:19:18.184Z,100428.16
2023-01-30T01:20:06.202Z,100434.88
2023-01-30T01:20:53.267Z,100422.19
2023-01-30T01:21:40.317Z,100424.72
2023-01-30T01:22:27.384Z,100420.25
2023-01-30T01:23:14.367Z,100424.88
2023-01-30T01:24:01.583Z,100416.94
2023-01-30T01:24:48.750Z,100425.03
2023-01-30T01:25:35.749Z,100422.09
2023-01-30T01:26:22.834Z,100418.19
2023-01-30T01:27:09.849Z,100412.91
2023-01-30T01:27:56.833Z,100417.72
2023-01-30T01:28:43.817Z,100414.22
2023-01-30T01:29:30.812Z,100414.03
2023-01-30T01:30:18.581Z,100404.47
2023-01-30T01:31:13.106Z,100406.41
2023-01-30T01:32:00.321Z,100406.13
2023-01-30T01:32:47.355Z,100409.63
2023-01-30T01:33:34.284Z,100403.31
2023-01-30T01:34:21.320Z,100402.19
2023-01-30T01:35:08.752Z,100401.00
2023-01-30T01:35:57.020Z,100400.56
2023-01-30T01:36:59.428Z,100409.03
2023-01-30T01:37:47.017Z,100396.00
2023-01-30T01:38:34.499Z,100399.78
2023-01-30T01:39:21.783Z,100395.94
2023-01-30T01:40:29.978Z,100399.09
2023-01-30T01:41:18.964Z,100398.91
2023-01-30T01:42:05.970Z,100400.31
2023-01-30T01:42:53.115Z,100397.53
2023-01-30T01:44:06.745Z,100391.88
2023-01-30T01:45:04.814Z,100391.94
2023-01-30T01:46:00.521Z,100391.88
2023-01-30T01:46:55.142Z,100394.69
2023-01-30T01:48:09.075Z,100397.44
2023-01-30T01:48:58.280Z,100389.91
2023-01-30T01:49:45.503Z,100379.78
2023-01-30T01:50:41.236Z,100381.09
2023-01-30T01:51:40.740Z,100389.56
2023-01-30T01:52:27.928Z,100383.84
2023-01-30T01:53:17.070Z,100376.37
2023-01-30T01:54:10.518Z,100376.16
2023-01-30T01:55:00.395Z,100380.31
2023-01-30T01:55:49.651Z,100370.66
2023-01-30T01:56:39.619Z,100375.69
2023-01-30T01:57:40.382Z,100374.12
2023-01-30T01:58:32.173Z,100376.75
2023-01-30T01:59:39.719Z,100369.91
2023-01-30T02:00:27.059Z,100377.53
2023-01-30T02:01:14.287Z,100365.34
2023-01-30T02:02:06.607Z,100369.81
2023-01-30T02:03:00.881Z,100369.47
2023-01-30T02:03:51.464Z,100360.16
2023-01-30T02:04:57.430Z,100362.19
2023-01-30T02:05:46.957Z,100366.59
2023-01-30T02:06:34.007Z,100357.97
2023-01-30T02:07:22.380Z,100357.38
2023-01-30T02:08:18.849Z,100353.22
2023-01-30T02:09:08.231Z,100351.94
2023-01-30T02:09:55.736Z,100354.28
2023-01-30T02:11:07.321Z,100348.41
2023-01-30T02:11:57.707Z,100358.91
2023-01-30T02:12:45.211Z,100353.91
2023-01-30T02:13:32.945Z,100351.81
2023-01-30T02:14:21.267Z,100352.59
2023-01-30T02:15:08.647Z,100347.50
2023-01-30T02:16:00.193Z,100347.06
2023-01-30T02:16:47.247Z,100346.34
2023-01-30T02:17:34.279Z,100349.78
2023-01-30T02:18:21.724Z,100350.66
2023-01-30T02:19:30.855Z,100338.94
2023-01-30T02:20:45.860Z,100343.66
2023-01-30T02:22:07.198Z,100343.47
2023-01-30T02:23:31.245Z,100341.47
2023-01-30T02:24:33.421Z,100341.81
2023-01-30T02:25:41.739Z,100338.00
2023-01-30T02:26:57.597Z,100334.31
2023-01-30T02:28:05.960Z,100344.31
2023-01-30T02:29:13.962Z,100334.16
2023-01-30T02:30:16.193Z,100335.31
2023-01-30T02:31:31.150Z,100320.78
2023-01-30T02:32:26.885Z,100320.12
2023-01-30T02:33:29.645Z,100323.41
2023-01-30T02:34:36.170Z,100320.47
2023-01-30T02:35:50.326Z,100324.09
2023-01-30T02:37:30.208Z,100323.28
2023-01-30T02:38:36.875Z,100317.16
2023-01-30T02:39:39.036Z,100319.63
2023-01-30T02:40:37.277Z,100309.22
2023-01-30T02:41:36.400Z,100315.41
2023-01-30T02:42:39.089Z,100315.53
2023-01-30T02:43:55.144Z,100312.78
2023-01-30T02:45:23.848Z,100305.50
2023-01-30T02:46:30.711Z,100307.28
2023-01-30T02:47:25.040Z,100307.12
2023-01-30T02:48:20.360Z,100306.75
2023-01-30T02:49:15.260Z,100309.81
2023-01-30T02:50:29.980Z,100318.22
2023-01-30T02:51:26.915Z,100311.47
2023-01-30T02:52:15.828Z,100311.72
2023-01-30T02:53:05.940Z,100312.31
2023-01-30T02:53:53.800Z,100304.63
2023-01-30T02:54:41.035Z,100297.53
2023-01-30T02:55:29.451Z,100297.59
2023-01-30T02:56:16.629Z,100304.13
2023-01-30T02:57:03.718Z,100299.06
2023-01-30T02:57:50.884Z,100297.19
2023-01-30T02:58:44.548Z,100290.00
2023-01-30T02:59:42.682Z,100295.50
2023-01-30T03:00:44.549Z,100298.47
2023-01-30T03:01:47.347Z,100302.19
2023-01-30T03:03:11.265Z,100299.19
2023-01-30T03:04:01.112Z,100289.00
2023-01-30T03:05:03.185Z,100297.03
2023-01-30T03:06:20.715Z,100291.56
2023-01-30T03:07:49.396Z,100288.47
2023-01-30T03:08:54.372Z,100284.69
2023-01-30T03:10:38.825Z,100284.34
2023-01-30T03:11:31.927Z,100274.87
2023-01-30T03:12:42.005Z,100280.06
2023-01-30T03:13:52.749Z,100274.22
2023-01-30T03:14:42.935Z,100272.25
2023-01-30T03:15:42.541Z,100273.38
2023-01-30T03:16:39.138Z,100265.50
2023-01-30T03:17:27.425Z,100276.59
2023-01-30T03:18:14.772Z,100270.19
2023-01-30T03:19:03.747Z,100263.25
2023-01-30T03:19:52.185Z,100254.91
2023-01-30T03:20:40.582Z,100254.75
2023-01-30T03:21:27.635Z,100261.00
2023-01-30T03:22:14.680Z,100258.59
2023-01-30T03:23:01.744Z,100264.16
2023-01-30T03:23:48.884Z,100270.34
2023-01-30T03:24:36.094Z,100260.47
2023-01-30T03:25:27.123Z,100259.44
2023-01-30T03:26:21.542Z,100260.22
2023-01-30T03:27:12.196Z,100253.13
2023-01-30T03:27:59.174Z,100254.13
2023-01-30T03:28:49.274Z,100252.12
2023-01-30T03:29:36.550Z,100252.06
2023-01-30T03:30:25.719Z,100251.34
2023-01-30T03:31:12.879Z,100254.91
2023-01-30T03:32:00.225Z,100252.28
2023-01-30T03:32:47.317Z,100248.78
2023-01-30T03:33:34.226Z,100239.78
2023-01-30T03:34:21.285Z,100239.59
2023-01-30T03:35:08.671Z,100240.72
2023-01-30T03:35:55.766Z,100245.13
2023-01-30T03:36:42.915Z,100242.69
2023-01-30T03:37:30.153Z,100238.44
2023-01-30T03:38:18.477Z,100244.63
2023-01-30T03:39:05.603Z,100234.69
2023-01-30T03:39:52.589Z,100237.09
2023-01-30T03:40:39.751Z,100235.59
2023-01-30T03:41:26.704Z,100237.69
2023-01-30T03:42:13.778Z,100231.41
2023-01-30T03:43:00.858Z,100229.50
2023-01-30T03:43:47.740Z,100231.19
2023-01-30T03:44:34.793Z,100231.28
2023-01-30T03:45:21.839Z,100235.56
2023-01-30T03:46:08.961Z,100229.16
2023-01-30T03:46:55.954Z,100232.34
2023-01-30T03:47:42.940Z,100230.50
2023-01-30T03:48:29.955Z,100222.63
2023-01-30T03:49:16.945Z,100226.31
2023-01-30T03:50:04.359Z,100219.03
2023-01-30T03:50:51.377Z,100219.50
2023-01-30T03:51:38.390Z,100226.47
2023-01-30T03:52:25.469Z,100231.44
2023-01-30T03:53:12.538Z,100232.94
2023-01-30T03:53:59.562Z,100225.88
2023-01-30T03:54:46.752Z,100227.37
2023-01-30T03:55:33.761Z,100227.28
2023-01-30T03:56:20.869Z,100225.59
2023-01-30T03:57:08.164Z,100219.91
2023-01-30T03:57:57.111Z,100219.13
2023-01-30T03:58:44.138Z,100216.37
2023-01-30T03:59:31.180Z,100219.59
2023-01-30T04:00:21.348Z,100215.28
2023-01-30T04:01:08.408Z,100215.22
2023-01-30T04:01:55.436Z,100212.91
2023-01-30T04:02:42.707Z,100209.87
2023-01-30T04:03:29.845Z,100204.41
2023-01-30T04:04:16.882Z,100204.53
2023-01-30T04:05:04.144Z,100203.53
2023-01-30T04:05:51.099Z,100192.03
2023-01-30T04:06:40.416Z,100195.72
2023-01-30T04:07:29.973Z,100182.63
2023-01-30T04:08:16.975Z,100186.41
2023-01-30T04:09:04.089Z,100187.06
2023-01-30T04:09:51.183Z,100189.41
2023-01-30T04:10:38.260Z,100183.22
2023-01-30T04:11:25.356Z,100185.53
2023-01-30T04:12:12.281Z,100183.28
2023-01-30T04:12:59.239Z,100184.50
2023-01-30T04:13:46.297Z,100190.44
2023-01-30T04:14:33.446Z,100186.19
2023-01-30T04:15:20.656Z,100190.63
2023-01-30T04:16:18.340Z,100183.09
2023-01-30T04:17:05.482Z,100192.53
2023-01-30T04:17:52.567Z,100193.28
2023-01-30T04:18:39.562Z,100189.34
2023-01-30T04:19:26.567Z,100192.41
2023-01-30T04:20:13.874Z,100188.59
2023-01-30T04:21:00.895Z,100191.75
2023-01-30T04:21:47.990Z,100190.81
2023-01-30T04:22:35.111Z,100188.00
2023-01-30T04:23:22.187Z,100192.44
2023-01-30T04:24:09.321Z,100185.13
2023-01-30T04:24:56.494Z,100187.09
2023-01-30T04:25:46.931Z,100188.53
2023-01-30T04:26:33.926Z,100178.81
2023-01-30T04:27:21.028Z,100181.31
2023-01-30T04:28:08.164Z,100186.59
2023-01-30T04:28:55.145Z,100179.37
2023-01-30T04:29:42.787Z,100178.34
2023-01-30T04:30:30.121Z,100178.06
2023-01-30T04:31:17.345Z,100179.00
2023-01-30T04:32:04.698Z,100179.75
2023-01-30T04:32:51.850Z,100176.28
2023-01-30T04:33:40.348Z,100176.28
2023-01-30T04:34:27.448Z,100166.75
2023-01-30T04:35:14.550Z,100164.88
2023-01-30T04:36:03.347Z,100169.66
2023-01-30T04:36:50.453Z,100177.81
2023-01-30T04:37:37.589Z,100173.38
2023-01-30T04:38:27.056Z,100169.91
2023-01-30T04:39:14.024Z,100166.25
2023-01-30T04:40:01.075Z,100171.25
2023-01-30T04:40:55.494Z,100169.37
2023-01-30T04:41:42.422Z,100167.78
2023-01-30T04:42:29.389Z,100164.53
2023-01-30T04:43:16.499Z,100163.06
2023-01-30T04:44:03.633Z,100168.09
2023-01-30T04:44:50.700Z,100151.22
2023-01-30T04:45:37.641Z,100158.84
2023-01-30T04:46:24.696Z,100164.94
2023-01-30T04:47:11.811Z,100160.50
2023-01-30T04:47:58.881Z,100165.72
2023-01-30T04:48:45.925Z,100160.38
2023-01-30T04:49:32.935Z,100163.16
2023-01-30T04:50:19.931Z,100156.13
2023-01-30T04:51:07.404Z,100159.53
2023-01-30T04:51:54.419Z,100152.78
2023-01-30T04:52:41.507Z,100148.44
2023-01-30T04:53:28.484Z,100146.91
2023-01-30T04:54:15.482Z,100152.94
2023-01-30T04:55:02.489Z,100142.91
2023-01-30T04:55:52.723Z,100132.34
2023-01-30T04:56:39.768Z,100131.41
2023-01-30T04:57:26.789Z,100126.62
2023-01-30T04:58:13.941Z,100127.66
2023-01-30T04:59:00.942Z,100123.97
2023-01-30T04:59:48.055Z,100124.94
2023-01-30T05:00:35.152Z,100125.69
2023-01-30T05:01:34.214Z,100129.69
2023-01-30T05:02:23.033Z,100128.16
2023-01-30T05:03:10.862Z,100124.41
2023-01-30T05:03:58.103Z,100123.91
2023-01-30T05:04:45.047Z,100133.69
2023-01-30T05:05:32.043Z,100132.16
2023-01-30T05:06:19.184Z,100131.13
2023-01-30T05:07:06.350Z,100124.75
2023-01-30T05:07:53.580Z,100137.78
2023-01-30T05:08:40.626Z,100129.88
2023-01-30T05:09:27.548Z,100132.22
2023-01-30T05:10:14.465Z,100133.16
2023-01-30T05:11:01.591Z,100131.34
2023-01-30T05:11:48.565Z,100134.69
2023-01-30T05:12:35.607Z,100134.69
2023-01-30T05:13:22.698Z,100136.06
2023-01-30T05:14:09.882Z,100132.16
2023-01-30T05:14:57.058Z,100135.56
2023-01-30T05:15:45.580Z,100128.34
2023-01-30T05:16:32.636Z,100131.34
2023-01-30T05:17:19.684Z,100130.16
2023-01-30T05:18:06.609Z,100124.59
2023-01-30T05:18:54.078Z,100138.50
2023-01-30T05:19:41.127Z,100132.88
2023-01-30T05:20:28.333Z,100127.22
2023-01-30T05:21:18.313Z,100132.50
2023-01-30T05:22:05.442Z,100139.97
2023-01-30T05:22:52.740Z,100138.28
2023-01-30T05:23:39.991Z,100142.53
2023-01-30T05:24:27.047Z,100148.66
2023-01-30T05:25:14.249Z,100149.69
2023-01-30T05:26:02.271Z,100142.53
2023-01-30T05:26:49.363Z,100153.16
2023-01-30T05:27:36.392Z,100157.41
2023-01-30T05:28:23.391Z,100148.91
2023-01-30T05:29:10.874Z,100147.97
2023-01-30T05:29:57.926Z,100155.31
2023-01-30T05:30:46.390Z,100152.66
2023-01-30T05:31:35.848Z,100145.44
2023-01-30T05:32:22.895Z,100152.66
2023-01-30T05:33:09.980Z,100153.50
2023-01-30T05:33:57.054Z,100148.16
2023-01-30T05:34:44.188Z,100154.81
2023-01-30T05:35:31.265Z,100155.56
2023-01-30T05:36:19.812Z,100150.97
2023-01-30T05:37:07.099Z,100151.75
2023-01-30T05:37:54.111Z,100146.63
2023-01-30T05:38:42.555Z,100150.22
2023-01-30T05:39:29.583Z,100142.31
2023-01-30T05:40:16.790Z,100139.47
2023-01-30T05:41:08.100Z,100142.19
2023-01-30T05:41:55.174Z,100142.31
2023-01-30T05:42:42.136Z,100137.59
2023-01-30T05:43:30.207Z,100133.44
2023-01-30T05:44:17.317Z,100141.44
2023-01-30T05:45:04.680Z,100131.81
2023-01-30T05:45:56.222Z,100129.44
2023-01-30T05:46:43.382Z,100123.97
2023-01-30T05:47:30.381Z,100122.78
2023-01-30T05:48:17.293Z,100126.53
2023-01-30T05:49:04.549Z,100122.88
2023-01-30T05:49:51.536Z,100119.19
2023-01-30T05:50:38.866Z,100125.91
2023-01-30T05:51:27.462Z,100121.19
2023-01-30T05:52:14.432Z,100126.09
2023-01-30T05:53:01.358Z,100133.34
2023-01-30T05:53:48.672Z,100138.53
2023-01-30T05:54:35.828Z,100133.34
2023-01-30T05:55:22.803Z,100130.03
2023-01-30T05:56:09.909Z,100133.50
2023-01-30T05:56:57.022Z,100129.69
2023-01-30T05:57:44.090Z,100129.59
2023-01-30T05:58:31.647Z,100129.41
2023-01-30T05:59:21.309Z,100125.91
2023-01-30T06:00:10.843Z,100135.03
2023-01-30T06:01:05.500Z,100130.09
2023-01-30T06:01:52.619Z,100132.84
2023-01-30T06:02:39.853Z,100127.38
2023-01-30T06:03:26.856Z,100131.31
2023-01-30T06:04:13.783Z,100134.38
2023-01-30T06:05:00.902Z,100129.75
2023-01-30T06:05:47.971Z,100129.75
2023-01-30T06:06:35.189Z,100126.09
2023-01-30T06:07:22.218Z,100131.28
2023-01-30T06:08:09.212Z,100122.72
2023-01-30T06:08:57.038Z,100119.94
2023-01-30T06:09:44.036Z,100124.53
2023-01-30T06:10:31.142Z,100123.22
2023-01-30T06:11:18.635Z,100123.34
2023-01-30T06:12:07.233Z,100123.06
2023-01-30T06:12:54.341Z,100111.25
2023-01-30T06:13:42.319Z,100120.06
2023-01-30T06:14:29.504Z,100114.78
2023-01-30T06:15:16.806Z,100121.47
2023-01-30T06:16:04.326Z,100119.31
2023-01-30T06:16:51.524Z,100115.53
2023-01-30T06:17:43.423Z,100107.63
2023-01-30T06:18:30.463Z,100110.81
2023-01-30T06:19:17.521Z,100107.12
2023-01-30T06:20:05.125Z,100114.91
2023-01-30T06:20:53.499Z,100107.63
2023-01-30T06:21:40.542Z,100114.63
2023-01-30T06:22:27.579Z,100108.13
2023-01-30T06:23:14.775Z,100101.03
2023-01-30T06:24:02.636Z,100101.13
2023-01-30T06:24:49.772Z,100101.97
2023-01-30T06:25:36.838Z,100101.59
2023-01-30T06:26:23.853Z,100103.59
2023-01-30T06:27:10.983Z,100104.25
2023-01-30T06:27:58.075Z,100099.44
2023-01-30T06:28:45.284Z,100097.25
2023-01-30T06:29:32.224Z,100097.38
2023-01-30T06:30:19.436Z,100095.19
2023-01-30T06:31:09.721Z,100099.53
2023-01-30T06:31:56.724Z,100088.47
2023-01-30T06:32:43.771Z,100090.56
2023-01-30T06:33:30.957Z,100099.44
2023-01-30T06:34:18.002Z,100095.75
2023-01-30T06:35:05.664Z,100089.44
2023-01-30T06:35:53.180Z,100094.34
2023-01-30T06:36:40.454Z,100086.97
2023-01-30T06:37:27.480Z,100093.09
2023-01-30T06:38:14.592Z,100085.47
2023-01-30T06:39:01.876Z,100087.16
2023-01-30T06:39:49.061Z,100080.56
2023-01-30T06:40:36.053Z,100080.34
2023-01-30T06:41:23.070Z,100083.97
2023-01-30T06:42:10.141Z,100081.22
2023-01-30T06:42:57.114Z,100089.25
2023-01-30T06:43:44.123Z,100081.78
2023-01-30T06:44:31.236Z,100082.34
2023-01-30T06:45:19.876Z,100077.81
2023-01-30T06:46:07.240Z,100077.25
2023-01-30T06:46:54.460Z,100076.41
2023-01-30T06:47:54.623Z,100077.16
2023-01-30T06:48:41.549Z,100071.19
2023-01-30T06:49:28.957Z,100081.78
2023-01-30T06:50:18.172Z,100077.91
2023-01-30T06:51:05.267Z,100076.94
2023-01-30T06:51:52.187Z,100083.75
2023-01-30T06:52:42.994Z,100080.44
2023-01-30T06:53:33.054Z,100079.75
2023-01-30T06:54:20.039Z,100081.75
2023-01-30T06:55:08.506Z,100080.97
2023-01-30T06:55:55.557Z,100085.31
2023-01-30T06:56:42.535Z,100086.09
2023-01-30T06:57:30.028Z,100081.84
2023-01-30T06:58:17.146Z,100086.53
2023-01-30T06:59:04.189Z,100082.00
2023-01-30T06:59:51.185Z,100087.75
2023-01-30T07:00:40.545Z,100089.38
2023-01-30T07:01:29.016Z,100096.06
2023-01-30T07:02:16.168Z,100093.69
2023-01-30T07:03:03.359Z,100090.38
2023-01-30T07:03:50.425Z,100088.41
2023-01-30T07:04:37.383Z,100088.50
2023-01-30T07:05:24.543Z,100087.03
2023-01-30T07:06:11.654Z,100083.16
2023-01-30T07:06:58.827Z,100082.72
2023-01-30T07:07:45.820Z,100089.47
2023-01-30T07:08:32.908Z,100085.81
2023-01-30T07:09:19.899Z,100085.28
2023-01-30T07:10:09.176Z,100075.44
2023-01-30T07:10:56.623Z,100080.03
2023-01-30T07:11:43.544Z,100079.41
2023-01-30T07:12:30.637Z,100067.37
2023-01-30T07:13:17.738Z,100070.09
2023-01-30T07:14:06.361Z,100070.16
2023-01-30T07:14:54.612Z,100070.47
2023-01-30T07:15:41.813Z,100062.78
2023-01-30T07:16:29.596Z,100060.44
2023-01-30T07:17:17.563Z,100063.63
2023-01-30T07:18:04.538Z,100065.31
2023-01-30T07:18:51.700Z,100061.72
2023-01-30T07:19:39.301Z,100060.97
2023-01-30T07:20:26.380Z,100058.94
2023-01-30T07:21:14.043Z,100067.34
2023-01-30T07:22:02.473Z,100065.00
2023-01-30T07:22:54.668Z,100074.56
2023-01-30T07:23:41.855Z,100066.81
2023-01-30T07:24:28.878Z,100061.41
2023-01-30T07:25:17.025Z,100060.25
2023-01-30T07:26:07.403Z,100057.69
2023-01-30T07:26:54.445Z,100067.78
2023-01-30T07:27:41.443Z,100068.41
2023-01-30T07:28:28.404Z,100070.44
2023-01-30T07:29:15.726Z,100063.44
2023-01-30T07:30:03.025Z,100064.91
2023-01-30T07:30:53.131Z,100061.41
2023-01-30T07:31:40.427Z,100058.53
2023-01-30T07:32:27.472Z,100050.91
2023-01-30T07:33:14.518Z,100057.78
2023-01-30T07:34:01.598Z,100050.41
2023-01-30T07:34:48.899Z,100048.59
2023-01-30T07:35:37.298Z,100047.84
2023-01-30T07:36:24.851Z,100038.97
2023-01-30T07:37:11.846Z,100042.88
2023-01-30T07:37:58.829Z,100044.44
2023-01-30T07:38:49.435Z,100033.09
2023-01-30T07:39:36.641Z,100039.56
2023-01-30T07:40:24.673Z,100036.59
2023-01-30T07:41:11.670Z,100027.78
2023-01-30T07:42:00.961Z,100027.28
2023-01-30T07:42:58.888Z,100030.03
2023-01-30T07:43:45.794Z,100023.97
2023-01-30T07:44:34.170Z,100020.41
2023-01-30T07:45:21.339Z,100022.72
2023-01-30T07:46:08.410Z,100016.84
2023-01-30T07:46:55.509Z,100013.56
2023-01-30T07:47:42.633Z,100013.03
2023-01-30T07:48:31.051Z,100017.38
2023-01-30T07:49:46.701Z,100009.53
2023-01-30T07:50:33.603Z,100010.78
2023-01-30T07:51:20.542Z,100002.00
2023-01-30T07:52:07.404Z,100011.13
2023-01-30T07:52:54.341Z,100015.94
2023-01-30T07:53:41.203Z,100019.00
2023-01-30T07:54:28.172Z,100018.34
2023-01-30T07:55:15.250Z,100014.91
2023-01-30T07:56:10.396Z,100017.97
2023-01-30T07:56:57.352Z,100037.19
2023-01-30T07:57:44.297Z,100038.75
2023-01-30T07:58:31.220Z,100038.31
2023-01-30T07:59:18.213Z,100026.38
2023-01-30T08:00:05.693Z,100017.47
2023-01-30T08:00:55.558Z,100025.50
2023-01-30T08:01:44.442Z,100033.75
2023-01-30T08:02:31.368Z,100030.75
2023-01-30T08:03:18.632Z,100007.84
2023-01-30T08:04:05.660Z,100012.94
2023-01-30T08:04:52.631Z,100006.16
2023-01-30T08:05:39.541Z,100006.44
2023-01-30T08:06:27.142Z,100005.19
2023-01-30T08:07:14.047Z,100016.56
2023-01-30T08:08:01.189Z,100003.78
2023-01-30T08:08:48.129Z,100006.91
2023-01-30T08:09:35.114Z,99993.84
2023-01-30T08:10:22.045Z,99995.13
2023-01-30T08:11:09.491Z,100009.78
2023-01-30T08:11:56.405Z,100020.47
2023-01-30T08:12:43.654Z,100020.53
2023-01-30T08:13:30.589Z,100009.81
2023-01-30T08:14:17.570Z,100001.12
2023-01-30T08:15:04.861Z,99988.69
2023-01-30T08:15:51.751Z,99989.28
2023-01-30T08:16:39.229Z,99984.34
2023-01-30T08:17:26.241Z,99998.47
2023-01-30T08:18:13.239Z,99996.16
2023-01-30T08:19:00.342Z,99992.72
2023-01-30T08:19:47.223Z,99996.94
2023-01-30T08:20:34.263Z,100003.00
2023-01-30T08:21:21.203Z,100008.41
2023-01-30T08:22:08.055Z,100020.28
2023-01-30T08:22:55.085Z,100000.78
2023-01-30T08:23:41.937Z,99982.44
2023-01-30T08:24:28.831Z,99964.03
2023-01-30T08:25:15.836Z,99953.13
2023-01-30T08:26:04.906Z,99956.31
2023-01-30T08:26:51.871Z,99972.00
2023-01-30T08:27:38.766Z,99995.47
2023-01-30T08:28:26.059Z,100006.28
2023-01-30T08:29:12.937Z,100003.09
2023-01-30T08:29:59.854Z,100007.06
2023-01-30T08:30:46.749Z,99993.91
2023-01-30T08:31:33.739Z,99992.97
2023-01-30T08:32:20.644Z,99982.22
2023-01-30T08:33:07.678Z,99985.41
2023-01-30T08:33:54.617Z,99981.22
2023-01-30T08:34:41.528Z,99981.22
2023-01-30T08:35:28.477Z,99984.53
2023-01-30T08:36:15.375Z,99985.94
2023-01-30T08:37:02.895Z,99988.44
2023-01-30T08:37:49.728Z,99985.78
2023-01-30T08:38:36.648Z,99981.66
2023-01-30T08:39:23.852Z,99980.91
2023-01-30T08:40:13.599Z,99980.22
2023-01-30T08:41:01.286Z,99986.56
2023-01-30T08:41:48.400Z,99984.41
2023-01-30T08:42:35.445Z,99987.56
2023-01-30T08:43:22.375Z,99996.09
2023-01-30T08:44:13.167Z,99996.47
2023-01-30T08:45:00.188Z,99996.75
2023-01-30T08:45:47.058Z,99995.47
2023-01-30T08:46:33.983Z,99985.31
2023-01-30T08:47:22.402Z,99987.56
2023-01-30T08:48:10.347Z,99980.78
2023-01-30T08:48:57.201Z,99988.19
2023-01-30T08:49:44.095Z,100005.59
2023-01-30T08:50:32.151Z,100002.38
2023-01-30T08:51:19.101Z,99999.78
2023-01-30T08:52:06.011Z,99989.88
2023-01-30T08:52:53.006Z,99990.00
2023-01-30T08:53:39.860Z,99992.06
2023-01-30T08:54:26.859Z,99997.12
2023-01-30T08:55:13.722Z,99998.69
2023-01-30T08:56:00.584Z,99990.75
2023-01-30T08:56:47.527Z,99989.78
2023-01-30T08:57:34.413Z,99987.97
2023-01-30T08:58:22.047Z,99980.13
2023-01-30T08:59:08.996Z,99981.34
2023-01-30T08:59:55.883Z,99990.66
2023-01-30T09:00:45.851Z,99993.69
2023-01-30T09:01:33.996Z,99998.16
2023-01-30T09:02:21.043Z,99984.13
2023-01-30T09:03:08.008Z,99984.84
2023-01-30T09:03:54.843Z,99992.81
2023-01-30T09:04:41.783Z,99997.03
2023-01-30T09:05:30.175Z,100004.41
2023-01-30T09:06:17.094Z,100000.81
2023-01-30T09:07:06.107Z,100009.87
2023-01-30T09:07:52.951Z,100002.38
2023-01-30T09:08:39.901Z,99997.78
2023-01-30T09:09:26.969Z,100003.47
2023-01-30T09:10:14.016Z,100006.25
2023-01-30T09:11:02.409Z,100002.38
2023-01-30T09:11:49.321Z,99996.59
2023-01-30T09:12:38.326Z,100001.44
2023-01-30T09:13:25.707Z,100002.75
2023-01-30T09:14:12.602Z,99999.00
2023-01-30T09:15:00.645Z,99995.00
2023-01-30T09:15:47.486Z,99989.81
2023-01-30T09:16:34.496Z,99987.28
2023-01-30T09:17:21.912Z,99980.75
2023-01-30T09:18:10.880Z,99980.09
2023-01-30T09:18:57.709Z,99980.59
2023-01-30T09:19:44.650Z,99967.28
2023-01-30T09:20:31.573Z,99978.81
2023-01-30T09:21:18.488Z,99985.91
2023-01-30T09:22:05.618Z,99985.31
2023-01-30T09:22:52.637Z,99978.28
2023-01-30T09:23:40.005Z,99976.72
2023-01-30T09:24:27.963Z,99975.16
2023-01-30T09:25:14.986Z,99966.81
2023-01-30T09:26:02.597Z,99970.72